createdAt,value
2018-09-12T00:00:03.106Z,21.07
2018-09-12T00:01:02.891Z,21.07
2018-09-12T00:02:02.808Z,21.07
2018-09-12T00:03:02.880Z,21.07
2018-09-12T00:04:03.024Z,21.07
2018-09-12T00:05:02.985Z,21.07
2018-09-12T00:06:03.051Z,21.07
2018-09-12T00:07:03.064Z,21.07
2018-09-12T00:08:02.941Z,21.07
2018-09-12T00:09:03.083Z,21.07
2018-09-12T00:10:03.124Z,21.07
2018-09-12T00:11:03.112Z,21.07
2018-09-12T00:12:02.952Z,21.07
2018-09-12T00:13:03.052Z,21.07
2018-09-12T00:14:03.174Z,21.07
2018-09-12T00:15:03.104Z,21.06
2018-09-12T00:16:03.160Z,21.07
2018-09-12T00:17:02.898Z,21.07
2018-09-12T00:18:03.206Z,21.07
2018-09-12T00:19:03.257Z,21.06
2018-09-12T00:20:03.130Z,21.06
2018-09-12T00:21:03.533Z,21.06
2018-09-12T00:22:03.120Z,21.06
2018-09-12T00:23:03.408Z,21.06
2018-09-12T00:24:03.052Z,21.05
2018-09-12T00:25:02.978Z,21.06
2018-09-12T00:26:03.027Z,21.06
2018-09-12T00:27:02.933Z,21.06
2018-09-12T00:28:03.053Z,21.06
2018-09-12T00:29:03.047Z,21.06
2018-09-12T00:30:03.332Z,21.06
2018-09-12T00:31:02.829Z,21.06
2018-09-12T00:32:03.141Z,21.05
2018-09-12T00:33:03.086Z,21.05
2018-09-12T00:34:03.121Z,21.04
2018-09-12T00:35:03.036Z,21.05
2018-09-12T00:36:03.443Z,21.05
2018-09-12T00:37:03.369Z,21.05
2018-09-12T00:38:03.012Z,21.05
2018-09-12T00:39:03.048Z,21.05
2018-09-12T00:40:02.894Z,21.05
2018-09-12T00:41:02.842Z,21.05
2018-09-12T00:42:03.123Z,21.04
2018-09-12T00:43:02.960Z,21.05
2018-09-12T00:44:03.164Z,21.05
2018-09-12T00:45:03.094Z,21.05
2018-09-12T00:46:02.927Z,21.05
2018-09-12T00:47:02.764Z,21.04
2018-09-12T00:48:02.993Z,21.04
2018-09-12T00:49:03.127Z,21.04
2018-09-12T00:50:03.068Z,21.04
2018-09-12T00:51:03.092Z,21.04
2018-09-12T00:52:03.116Z,21.03
2018-09-12T00:53:03.073Z,21.04
2018-09-12T00:54:03.073Z,21.03
2018-09-12T00:55:03.026Z,21.03
2018-09-12T00:56:02.913Z,21.02
2018-09-12T00:57:03.049Z,21.02
2018-09-12T00:58:03.135Z,21.03
2018-09-12T00:59:03.115Z,21.03
2018-09-12T01:00:02.964Z,21.02
2018-09-12T01:01:02.958Z,21.03
2018-09-12T01:02:03.150Z,21.02
2018-09-12T01:03:03.153Z,21.03
2018-09-12T01:04:03.207Z,21.02
2018-09-12T01:05:02.877Z,21.03
2018-09-12T01:06:02.947Z,21.02
2018-09-12T01:07:03.225Z,21.02
2018-09-12T01:08:02.822Z,21.02
2018-09-12T01:09:03.128Z,21.02
2018-09-12T01:10:02.835Z,21.03
2018-09-12T01:11:02.907Z,21.03
2018-09-12T01:12:03.180Z,21.03
2018-09-12T01:13:03.009Z,21.03
2018-09-12T01:14:03.007Z,21.03
2018-09-12T01:15:02.951Z,21.03
2018-09-12T01:16:03.092Z,21.02
2018-09-12T01:17:03.240Z,21.03
2018-09-12T01:18:03.072Z,21.02
2018-09-12T01:19:03.105Z,21.03
2018-09-12T01:20:03.188Z,21.02
2018-09-12T01:21:02.934Z,21.02
2018-09-12T01:22:02.978Z,21.02
2018-09-12T01:23:02.826Z,21.02
2018-09-12T01:24:02.930Z,21.01
2018-09-12T01:25:03.003Z,21.02
2018-09-12T01:26:03.073Z,21.02
2018-09-12T01:27:03.073Z,21.02
2018-09-12T01:28:02.960Z,21.02
2018-09-12T01:29:02.987Z,21.02
2018-09-12T01:30:03.074Z,21.02
2018-09-12T01:31:02.827Z,21.02
2018-09-12T01:32:03.043Z,21.01
2018-09-12T01:33:03.063Z,21.02
2018-09-12T01:34:02.941Z,21.01
2018-09-12T01:35:02.936Z,21.02
2018-09-12T01:36:02.931Z,21.01
2018-09-12T01:37:03.122Z,21.02
2018-09-12T01:38:03.080Z,21.02
2018-09-12T01:39:03.042Z,21.01
2018-09-12T01:40:03.040Z,21.02
2018-09-12T01:41:03.083Z,21.02
2018-09-12T01:42:03.105Z,21.02
2018-09-12T01:43:03.000Z,21.02
2018-09-12T01:44:02.869Z,21.01
2018-09-12T01:45:02.833Z,21.01
2018-09-12T01:46:03.121Z,21.01
2018-09-12T01:47:03.102Z,21.01
2018-09-12T01:48:02.988Z,21.01
2018-09-12T01:49:02.993Z,21.01
2018-09-12T01:50:03.008Z,21.01
2018-09-12T01:51:02.958Z,21.01
2018-09-12T01:52:02.996Z,21.01
2018-09-12T01:53:03.008Z,21.01
2018-09-12T01:54:03.083Z,21.01
2018-09-12T01:55:02.970Z,21.01
2018-09-12T01:56:02.869Z,21.01
2018-09-12T01:57:03.128Z,21.01
2018-09-12T01:58:03.008Z,21.01
2018-09-12T01:59:03.090Z,21.01
2018-09-12T02:00:03.196Z,21.01
2018-09-12T02:01:02.876Z,21.01
2018-09-12T02:02:03.107Z,21.01
2018-09-12T02:03:02.971Z,21.01
2018-09-12T02:04:03.139Z,21.01
2018-09-12T02:05:02.924Z,21.01
2018-09-12T02:06:02.887Z,21.01
2018-09-12T02:07:02.838Z,21.01
2018-09-12T02:08:02.940Z,21.01
2018-09-12T02:09:02.992Z,21.01
2018-09-12T02:10:03.152Z,21.01
2018-09-12T02:11:02.898Z,21.01
2018-09-12T02:12:03.030Z,21
2018-09-12T02:13:03.017Z,21
2018-09-12T02:14:03.002Z,21
2018-09-12T02:15:02.892Z,21
2018-09-12T02:16:02.797Z,20.99
2018-09-12T02:17:03.133Z,21
2018-09-12T02:18:03.250Z,21
2018-09-12T02:19:03.053Z,21
2018-09-12T02:20:03.184Z,20.99
2018-09-12T02:21:02.871Z,20.99
2018-09-12T02:22:03.015Z,21
2018-09-12T02:23:03.006Z,20.99
2018-09-12T02:24:03.083Z,21
2018-09-12T02:25:03.022Z,20.99
2018-09-12T02:26:02.891Z,20.99
2018-09-12T02:27:03.061Z,20.99
2018-09-12T02:28:03.109Z,21
2018-09-12T02:29:03.039Z,20.99
2018-09-12T02:30:02.804Z,20.99
2018-09-12T02:31:03.026Z,20.99
2018-09-12T02:32:03.093Z,20.99
2018-09-12T02:33:02.892Z,20.99
2018-09-12T02:34:02.969Z,20.99
2018-09-12T02:35:02.983Z,20.99
2018-09-12T02:36:03.068Z,20.98
2018-09-12T02:37:03.153Z,20.99
2018-09-12T02:38:02.980Z,20.99
2018-09-12T02:39:03.037Z,20.99
2018-09-12T02:40:03.359Z,20.99
2018-09-12T02:41:02.923Z,20.99
2018-09-12T02:42:03.222Z,20.99
2018-09-12T02:43:02.915Z,20.99
2018-09-12T02:44:03.038Z,20.99
2018-09-12T02:45:02.831Z,20.99
2018-09-12T02:46:02.859Z,20.99
2018-09-12T02:47:02.931Z,20.99
2018-09-12T02:48:03.183Z,20.99
2018-09-12T02:49:02.893Z,20.99
2018-09-12T02:50:02.993Z,20.99
2018-09-12T02:51:02.702Z,20.99
2018-09-12T02:52:03.062Z,20.99
2018-09-12T02:53:03.183Z,20.98
2018-09-12T02:54:03.063Z,20.98
2018-09-12T02:55:02.818Z,20.99
2018-09-12T02:56:02.901Z,20.99
2018-09-12T02:57:02.959Z,20.99
2018-09-12T02:58:02.809Z,20.98
2018-09-12T02:59:02.797Z,20.98
2018-09-12T03:00:02.971Z,20.98
2018-09-12T03:01:03.245Z,20.98
2018-09-12T03:02:02.905Z,20.98
2018-09-12T03:03:02.745Z,20.98
2018-09-12T03:04:03.068Z,20.99
2018-09-12T03:05:03.115Z,20.99
2018-09-12T03:06:02.898Z,20.98
2018-09-12T03:07:02.997Z,20.98
2018-09-12T03:08:03.672Z,20.98
2018-09-12T03:09:02.954Z,20.98
2018-09-12T03:10:03.265Z,20.98
2018-09-12T03:11:02.800Z,20.98
2018-09-12T03:12:03.047Z,20.98
2018-09-12T03:13:03.070Z,20.97
2018-09-12T03:14:02.869Z,20.96
2018-09-12T03:15:02.950Z,20.97
2018-09-12T03:16:03.167Z,20.97
2018-09-12T03:17:02.788Z,20.97
2018-09-12T03:18:02.955Z,20.97
2018-09-12T03:19:03.175Z,20.97
2018-09-12T03:20:03.039Z,20.96
2018-09-12T03:21:05.234Z,20.97
2018-09-12T03:22:03.151Z,20.97
2018-09-12T03:23:02.916Z,20.97
2018-09-12T03:24:02.987Z,20.97
2018-09-12T03:25:03.119Z,20.97
2018-09-12T03:26:02.934Z,20.97
2018-09-12T03:27:03.500Z,20.97
2018-09-12T03:28:03.100Z,20.97
2018-09-12T03:29:02.861Z,20.97
2018-09-12T03:30:02.983Z,20.97
2018-09-12T03:31:03.110Z,20.97
2018-09-12T03:32:02.974Z,20.97
2018-09-12T03:33:03.051Z,20.97
2018-09-12T03:34:03.024Z,20.97
2018-09-12T03:35:02.910Z,20.97
2018-09-12T03:36:03.074Z,20.97
2018-09-12T03:37:02.909Z,20.97
2018-09-12T03:38:02.924Z,20.97
2018-09-12T03:39:02.779Z,20.97
2018-09-12T03:40:02.858Z,20.97
2018-09-12T03:41:03.149Z,20.97
2018-09-12T03:42:02.814Z,20.97
2018-09-12T03:43:02.930Z,20.97
2018-09-12T03:44:02.917Z,20.97
2018-09-12T03:45:03.229Z,20.96
2018-09-12T03:46:02.956Z,20.96
2018-09-12T03:47:03.039Z,20.97
2018-09-12T03:48:03.707Z,20.96
2018-09-12T03:49:02.905Z,20.97
2018-09-12T03:50:03.059Z,20.96
2018-09-12T03:51:02.897Z,20.96
2018-09-12T03:52:03.044Z,20.96
2018-09-12T03:53:02.949Z,20.96
2018-09-12T03:54:02.879Z,20.96
2018-09-12T03:55:03.054Z,20.96
2018-09-12T03:56:02.931Z,20.95
2018-09-12T03:57:02.943Z,20.96
2018-09-12T03:58:03.046Z,20.96
2018-09-12T03:59:02.941Z,20.96
2018-09-12T04:00:02.956Z,20.96
2018-09-12T04:01:03.063Z,20.96
2018-09-12T04:02:02.745Z,20.96
2018-09-12T04:03:02.805Z,20.96
2018-09-12T04:04:02.932Z,20.96
2018-09-12T04:05:02.863Z,20.96
2018-09-12T04:06:02.984Z,20.95
2018-09-12T04:07:02.838Z,20.95
2018-09-12T04:08:02.908Z,20.95
2018-09-12T04:09:02.853Z,20.96
2018-09-12T04:10:03.079Z,20.96
2018-09-12T04:11:02.769Z,20.95
2018-09-12T04:12:02.968Z,20.95
2018-09-12T04:13:03.007Z,20.95
2018-09-12T04:14:03.010Z,20.95
2018-09-12T04:15:02.871Z,20.95
2018-09-12T04:16:02.836Z,20.95
2018-09-12T04:17:03.252Z,20.95
2018-09-12T04:18:03.036Z,20.95
2018-09-12T04:19:03.007Z,20.95
2018-09-12T04:20:02.836Z,20.95
2018-09-12T04:21:02.942Z,20.95
2018-09-12T04:22:02.875Z,20.95
2018-09-12T04:23:02.874Z,20.95
2018-09-12T04:24:03.202Z,20.95
2018-09-12T04:25:03.151Z,20.95
2018-09-12T04:26:02.946Z,20.95
2018-09-12T04:27:02.959Z,20.95
2018-09-12T04:28:03.012Z,20.95
2018-09-12T04:29:02.865Z,20.95
2018-09-12T04:30:03.179Z,20.95
2018-09-12T04:31:03.016Z,20.95
2018-09-12T04:32:03.017Z,20.95
2018-09-12T04:33:02.828Z,20.95
2018-09-12T04:34:02.909Z,20.95
2018-09-12T04:35:02.783Z,20.95
2018-09-12T04:36:02.928Z,20.95
2018-09-12T04:37:02.924Z,20.95
2018-09-12T04:38:02.935Z,20.95
2018-09-12T04:39:02.988Z,20.95
2018-09-12T04:40:03.274Z,20.95
2018-09-12T04:41:03.102Z,20.95
2018-09-12T04:42:02.896Z,20.95
2018-09-12T04:43:02.939Z,20.95
2018-09-12T04:44:03.211Z,20.95
2018-09-12T04:45:03.007Z,20.95
2018-09-12T04:46:03.006Z,20.95
2018-09-12T04:47:02.964Z,20.95
2018-09-12T04:48:02.993Z,20.95
2018-09-12T04:49:02.930Z,20.95
2018-09-12T04:50:02.931Z,20.95
2018-09-12T04:51:02.959Z,20.95
2018-09-12T04:52:03.054Z,20.95
2018-09-12T04:53:02.803Z,20.95
2018-09-12T04:54:02.830Z,20.95
2018-09-12T04:55:03.791Z,20.95
2018-09-12T04:56:03.043Z,20.95
2018-09-12T04:57:03.066Z,20.94
2018-09-12T04:58:02.914Z,20.95
2018-09-12T04:59:02.949Z,20.95
2018-09-12T05:00:03.245Z,20.95
2018-09-12T05:01:02.908Z,20.95
2018-09-12T05:02:02.838Z,20.95
2018-09-12T05:03:03.209Z,20.95
2018-09-12T05:04:03.009Z,20.95
2018-09-12T05:05:02.867Z,20.95
2018-09-12T05:06:02.886Z,20.95
2018-09-12T05:07:03.081Z,20.95
2018-09-12T05:08:03.137Z,20.95
2018-09-12T05:09:03.014Z,20.95
2018-09-12T05:10:03.269Z,20.95
2018-09-12T05:11:02.927Z,20.95
2018-09-12T05:12:02.711Z,20.95
2018-09-12T05:13:02.940Z,20.95
2018-09-12T05:14:02.989Z,20.95
2018-09-12T05:15:03.061Z,20.95
2018-09-12T05:16:03.623Z,20.95
2018-09-12T05:17:03.116Z,20.95
2018-09-12T05:18:03.020Z,20.95
2018-09-12T05:19:02.841Z,20.95
2018-09-12T05:20:02.940Z,20.95
2018-09-12T05:21:02.959Z,20.95
2018-09-12T05:22:03.189Z,20.95
2018-09-12T05:23:03.130Z,20.95
2018-09-12T05:24:02.939Z,20.94
2018-09-12T05:25:02.716Z,20.95
2018-09-12T05:26:03.069Z,20.95
2018-09-12T05:27:02.895Z,20.95
2018-09-12T05:28:02.912Z,20.95
2018-09-12T05:29:02.837Z,20.95
2018-09-12T05:30:02.861Z,20.95
2018-09-12T05:31:02.960Z,20.95
2018-09-12T05:32:03.032Z,20.95
2018-09-12T05:33:02.930Z,20.94
2018-09-12T05:34:02.972Z,20.95
2018-09-12T05:35:03.043Z,20.95
2018-09-12T05:36:02.983Z,20.95
2018-09-12T05:37:02.835Z,20.95
2018-09-12T05:38:02.854Z,20.95
2018-09-12T05:39:02.885Z,20.95
2018-09-12T05:40:02.949Z,20.95
2018-09-12T05:41:02.787Z,20.95
2018-09-12T05:42:02.755Z,20.95
2018-09-12T05:43:02.746Z,20.95
2018-09-12T05:44:02.922Z,20.95
2018-09-12T05:45:02.866Z,20.94
2018-09-12T05:46:02.881Z,20.95
2018-09-12T05:47:02.793Z,20.95
2018-09-12T05:48:03.007Z,20.95
2018-09-12T05:49:02.920Z,20.95
2018-09-12T05:50:03.381Z,20.95
2018-09-12T05:51:02.949Z,20.94
2018-09-12T05:52:03.036Z,20.95
2018-09-12T05:53:02.883Z,20.95
2018-09-12T05:54:02.977Z,20.95
2018-09-12T05:55:02.896Z,20.94
2018-09-12T05:56:03.254Z,20.89
2018-09-12T05:57:02.983Z,20.83
2018-09-12T05:58:03.040Z,20.79
2018-09-12T05:59:03.132Z,20.76
2018-09-12T06:00:02.816Z,20.71
2018-09-12T06:01:03.015Z,20.68
2018-09-12T06:02:03.025Z,20.65
2018-09-12T06:03:02.922Z,20.64
2018-09-12T06:04:03.065Z,20.61
2018-09-12T06:05:03.111Z,20.59
2018-09-12T06:06:03.017Z,20.56
2018-09-12T06:07:04.361Z,20.56
2018-09-12T06:08:03.119Z,20.53
2018-09-12T06:09:02.882Z,20.54
2018-09-12T06:10:03.057Z,20.51
2018-09-12T06:11:02.909Z,20.5
2018-09-12T06:12:03.209Z,20.47
2018-09-12T06:13:02.764Z,20.46
2018-09-12T06:14:03.516Z,20.45
2018-09-12T06:15:03.208Z,20.43
2018-09-12T06:16:02.815Z,20.43
2018-09-12T06:17:03.055Z,20.45
2018-09-12T06:18:03.099Z,20.45
2018-09-12T06:19:02.864Z,20.44
2018-09-12T06:20:03.112Z,20.42
2018-09-12T06:21:02.781Z,20.41
2018-09-12T06:22:03.053Z,20.41
2018-09-12T06:23:02.941Z,20.39
2018-09-12T06:24:02.756Z,20.42
2018-09-12T06:25:03.308Z,20.46
2018-09-12T06:26:03.052Z,20.51
2018-09-12T06:27:02.866Z,20.54
2018-09-12T06:28:03.256Z,20.57
2018-09-12T06:29:03.129Z,20.63
2018-09-12T06:30:03.015Z,20.65
2018-09-12T06:31:03.000Z,20.67
2018-09-12T06:32:02.947Z,20.71
2018-09-12T06:33:03.129Z,20.73
2018-09-12T06:34:02.840Z,20.76
2018-09-12T06:35:02.866Z,20.76
2018-09-12T06:36:02.880Z,20.74
2018-09-12T06:37:03.560Z,20.76
2018-09-12T06:38:02.863Z,20.77
2018-09-12T06:39:02.955Z,20.78
2018-09-12T06:40:03.283Z,20.8
2018-09-12T06:41:02.839Z,20.8
2018-09-12T06:42:03.042Z,20.83
2018-09-12T06:43:02.866Z,20.83
2018-09-12T06:44:02.979Z,20.82
2018-09-12T06:45:03.008Z,20.82
2018-09-12T06:46:02.835Z,20.82
2018-09-12T06:47:02.887Z,20.83
2018-09-12T06:48:02.931Z,20.82
2018-09-12T06:49:02.851Z,20.83
2018-09-12T06:50:02.813Z,20.83
2018-09-12T06:51:02.852Z,20.83
2018-09-12T06:52:02.989Z,20.83
2018-09-12T06:53:02.754Z,20.83
2018-09-12T06:54:03.078Z,20.83
2018-09-12T06:55:03.027Z,20.83
2018-09-12T06:56:02.780Z,20.83
2018-09-12T06:57:02.837Z,20.83
2018-09-12T06:58:02.892Z,20.83
2018-09-12T06:59:03.007Z,20.83
2018-09-12T07:00:02.843Z,20.84
2018-09-12T07:01:03.354Z,20.84
2018-09-12T07:02:02.901Z,20.85
2018-09-12T07:03:02.839Z,20.85
2018-09-12T07:04:02.974Z,20.85
2018-09-12T07:05:02.710Z,20.86
2018-09-12T07:06:02.822Z,20.86
2018-09-12T07:07:03.158Z,20.86
2018-09-12T07:08:02.777Z,20.86
2018-09-12T07:09:03.022Z,20.87
2018-09-12T07:10:03.469Z,20.87
2018-09-12T07:11:03.040Z,20.87
2018-09-12T07:12:03.113Z,20.87
2018-09-12T07:13:02.983Z,20.87
2018-09-12T07:14:03.383Z,20.88
2018-09-12T07:15:03.091Z,20.87
2018-09-12T07:16:02.840Z,20.87
2018-09-12T07:17:03.076Z,20.87
2018-09-12T07:18:03.202Z,20.87
2018-09-12T07:19:02.811Z,20.88
2018-09-12T07:20:02.876Z,20.88
2018-09-12T07:21:02.997Z,20.88
2018-09-12T07:22:02.851Z,20.87
2018-09-12T07:23:02.822Z,20.88
2018-09-12T07:24:03.078Z,20.88
2018-09-12T07:25:03.128Z,20.88
2018-09-12T07:26:02.920Z,20.88
2018-09-12T07:27:02.964Z,20.88
2018-09-12T07:28:03.067Z,20.89
2018-09-12T07:29:02.806Z,20.89
2018-09-12T07:30:02.847Z,20.89
2018-09-12T07:31:02.820Z,20.89
2018-09-12T07:32:02.781Z,20.89
2018-09-12T07:33:02.946Z,20.87
2018-09-12T07:34:02.886Z,20.88
2018-09-12T07:35:02.953Z,20.87
2018-09-12T07:36:02.918Z,20.87
2018-09-12T07:37:02.774Z,20.88
2018-09-12T07:38:02.737Z,20.88
2018-09-12T07:39:02.966Z,20.88
2018-09-12T07:40:03.084Z,20.88
2018-09-12T07:41:02.879Z,20.88
2018-09-12T07:42:03.022Z,20.88
2018-09-12T07:43:02.922Z,20.88
2018-09-12T07:44:02.941Z,20.88
2018-09-12T07:45:03.068Z,20.88
2018-09-12T07:46:02.866Z,20.89
2018-09-12T07:47:02.999Z,20.89
2018-09-12T07:48:03.071Z,20.88
2018-09-12T07:49:03.426Z,20.88
2018-09-12T07:50:03.330Z,20.88
2018-09-12T07:51:02.818Z,20.88
2018-09-12T07:52:02.859Z,20.89
2018-09-12T07:53:02.886Z,20.89
2018-09-12T07:54:02.839Z,20.88
2018-09-12T07:55:02.959Z,20.88
2018-09-12T07:56:03.625Z,20.87
2018-09-12T07:57:03.027Z,20.88
2018-09-12T07:58:02.878Z,20.88
2018-09-12T07:59:02.912Z,20.88
2018-09-12T08:00:03.747Z,20.88
2018-09-12T08:01:02.765Z,20.88
2018-09-12T08:02:02.818Z,20.88
2018-09-12T08:03:03.028Z,20.87
2018-09-12T08:04:02.806Z,20.88
2018-09-12T08:05:02.923Z,20.89
2018-09-12T08:06:03.153Z,20.89
2018-09-12T08:07:02.914Z,20.88
2018-09-12T08:08:02.866Z,20.89
2018-09-12T08:09:02.810Z,20.88
2018-09-12T08:10:02.991Z,20.88
2018-09-12T08:11:02.765Z,20.88
2018-09-12T08:12:02.986Z,20.89
2018-09-12T08:13:02.737Z,20.89
2018-09-12T08:14:02.900Z,20.89
2018-09-12T08:15:02.938Z,20.87
2018-09-12T08:16:02.905Z,20.87
2018-09-12T08:17:03.119Z,20.88
2018-09-12T08:18:02.871Z,20.87
2018-09-12T08:19:03.784Z,20.87
2018-09-12T08:20:02.744Z,20.87
2018-09-12T08:21:02.718Z,20.86
2018-09-12T08:22:02.915Z,20.87
2018-09-12T08:23:02.967Z,20.86
2018-09-12T08:24:02.974Z,20.85
2018-09-12T08:25:03.032Z,20.86
2018-09-12T08:26:03.027Z,20.86
2018-09-12T08:27:02.827Z,20.85
2018-09-12T08:28:03.046Z,20.86
2018-09-12T08:29:02.970Z,20.85
2018-09-12T08:30:02.899Z,20.86
2018-09-12T08:31:02.898Z,20.86
2018-09-12T08:32:02.908Z,20.86
2018-09-12T08:33:03.026Z,20.86
2018-09-12T08:34:03.200Z,20.86
2018-09-12T08:35:03.069Z,20.85
2018-09-12T08:36:02.914Z,20.86
2018-09-12T08:37:03.059Z,20.86
2018-09-12T08:38:03.080Z,20.86
2018-09-12T08:39:02.933Z,20.86
2018-09-12T08:40:02.915Z,20.86
2018-09-12T08:41:02.814Z,20.85
2018-09-12T08:42:03.328Z,20.86
2018-09-12T08:43:03.155Z,20.86
2018-09-12T08:44:03.072Z,20.85
2018-09-12T08:45:03.089Z,20.86
2018-09-12T08:46:02.686Z,20.86
2018-09-12T08:47:02.915Z,20.86
2018-09-12T08:48:03.014Z,20.86
2018-09-12T08:49:02.915Z,20.86
2018-09-12T08:50:02.973Z,20.87
2018-09-12T08:51:03.015Z,20.86
2018-09-12T08:52:02.888Z,20.86
2018-09-12T08:53:03.573Z,20.87
2018-09-12T08:54:03.056Z,20.87
2018-09-12T08:55:02.996Z,20.86
2018-09-12T08:56:02.785Z,20.87
2018-09-12T08:57:02.839Z,20.87
2018-09-12T08:58:02.889Z,20.85
2018-09-12T08:59:03.040Z,20.84
2018-09-12T09:00:02.874Z,20.86
2018-09-12T09:01:02.864Z,20.89
2018-09-12T09:02:02.978Z,20.88
2018-09-12T09:03:02.890Z,20.88
2018-09-12T09:04:03.404Z,20.89
2018-09-12T09:05:03.154Z,20.89
2018-09-12T09:06:02.814Z,20.91
2018-09-12T09:07:03.074Z,20.92
2018-09-12T09:08:02.971Z,20.92
2018-09-12T09:09:02.878Z,20.93
2018-09-12T09:10:03.042Z,20.95
2018-09-12T09:11:02.940Z,20.93
2018-09-12T09:12:02.919Z,20.95
2018-09-12T09:13:02.924Z,20.97
2018-09-12T09:14:02.934Z,20.96
2018-09-12T09:15:02.995Z,20.96
2018-09-12T09:16:02.960Z,20.96
2018-09-12T09:17:03.004Z,20.95
2018-09-12T09:18:02.943Z,20.95
2018-09-12T09:19:02.871Z,20.95
2018-09-12T09:20:02.976Z,20.95
2018-09-12T09:21:02.817Z,20.95
2018-09-12T09:22:03.005Z,20.95
2018-09-12T09:23:02.708Z,20.95
2018-09-12T09:24:03.037Z,20.96
2018-09-12T09:25:03.107Z,20.95
2018-09-12T09:26:02.909Z,20.96
2018-09-12T09:27:02.717Z,20.95
2018-09-12T09:28:02.906Z,20.95
2018-09-12T09:29:02.824Z,20.95
2018-09-12T09:30:02.842Z,20.95
2018-09-12T09:31:02.753Z,20.95
2018-09-12T09:32:03.060Z,20.95
2018-09-12T09:33:02.726Z,20.95
2018-09-12T09:34:02.901Z,20.95
2018-09-12T09:35:03.967Z,20.95
2018-09-12T09:36:02.933Z,20.95
2018-09-12T09:37:02.993Z,20.95
2018-09-12T09:38:02.757Z,20.94
2018-09-12T09:39:02.798Z,20.94
2018-09-12T09:40:02.763Z,20.94
2018-09-12T09:41:03.062Z,20.94
2018-09-12T09:42:03.030Z,20.94
2018-09-12T09:43:02.857Z,20.94
2018-09-12T09:44:03.213Z,20.94
2018-09-12T09:45:02.817Z,20.94
2018-09-12T09:46:02.963Z,20.94
2018-09-12T09:47:02.966Z,20.94
2018-09-12T09:48:03.733Z,20.94
2018-09-12T09:49:02.811Z,20.94
2018-09-12T09:50:02.792Z,20.93
2018-09-12T09:51:02.840Z,20.93
2018-09-12T09:52:02.809Z,20.93
2018-09-12T09:53:02.793Z,20.93
2018-09-12T09:54:03.203Z,20.93
2018-09-12T09:55:03.508Z,20.93
2018-09-12T09:56:02.927Z,20.93
2018-09-12T09:57:03.128Z,20.93
2018-09-12T09:58:03.149Z,20.93
2018-09-12T09:59:02.931Z,20.93
2018-09-12T10:00:03.029Z,20.93
2018-09-12T10:01:03.108Z,20.93
2018-09-12T10:02:02.867Z,20.92
2018-09-12T10:03:03.018Z,20.92
2018-09-12T10:04:02.680Z,20.93
2018-09-12T10:05:02.728Z,20.93
2018-09-12T10:06:03.646Z,20.92
2018-09-12T10:07:02.901Z,20.92
2018-09-12T10:08:02.876Z,20.92
2018-09-12T10:09:02.817Z,20.92
2018-09-12T10:10:02.886Z,20.92
2018-09-12T10:11:02.907Z,20.92
2018-09-12T10:12:02.755Z,20.92
2018-09-12T10:13:02.861Z,20.92
2018-09-12T10:14:02.963Z,20.92
2018-09-12T10:15:02.868Z,20.92
2018-09-12T10:16:02.797Z,20.92
2018-09-12T10:17:03.131Z,20.92
2018-09-12T10:18:02.861Z,20.91
2018-09-12T10:19:02.949Z,20.91
2018-09-12T10:20:02.890Z,20.91
2018-09-12T10:21:03.067Z,20.91
2018-09-12T10:22:02.868Z,20.91
2018-09-12T10:23:02.917Z,20.91
2018-09-12T10:24:02.795Z,20.91
2018-09-12T10:25:03.024Z,20.92
2018-09-12T10:26:02.963Z,20.93
2018-09-12T10:27:02.887Z,20.92
2018-09-12T10:28:02.907Z,20.92
2018-09-12T10:29:03.032Z,20.91
2018-09-12T10:30:02.915Z,20.91
2018-09-12T10:31:02.847Z,20.9
2018-09-12T10:32:02.817Z,20.91
2018-09-12T10:33:02.872Z,20.91
2018-09-12T10:34:02.975Z,20.91
2018-09-12T10:35:03.082Z,20.9
2018-09-12T10:36:03.025Z,20.9
2018-09-12T10:37:03.128Z,20.9
2018-09-12T10:38:02.843Z,20.91
2018-09-12T10:39:03.000Z,20.9
2018-09-12T10:40:02.872Z,20.9
2018-09-12T10:41:03.818Z,20.91
2018-09-12T10:42:02.973Z,20.91
2018-09-12T10:43:02.953Z,20.9
2018-09-12T10:44:02.811Z,20.9
2018-09-12T10:45:03.035Z,20.9
2018-09-12T10:46:02.984Z,20.9
2018-09-12T10:47:02.817Z,20.9
2018-09-12T10:48:02.863Z,20.91
2018-09-12T10:49:03.075Z,20.89
2018-09-12T10:50:02.982Z,20.9
2018-09-12T10:51:02.954Z,20.9
2018-09-12T10:52:02.948Z,20.9
2018-09-12T10:53:02.750Z,20.9
2018-09-12T10:54:02.868Z,20.89
2018-09-12T10:55:03.099Z,20.89
2018-09-12T10:56:02.919Z,20.89
2018-09-12T10:57:02.677Z,20.89
2018-09-12T10:58:02.760Z,20.89
2018-09-12T10:59:03.417Z,20.9
2018-09-12T11:00:02.883Z,20.9
2018-09-12T11:01:03.231Z,20.91
2018-09-12T11:02:02.894Z,20.91
2018-09-12T11:03:02.897Z,20.91
2018-09-12T11:04:03.084Z,20.91
2018-09-12T11:05:02.972Z,20.9
2018-09-12T11:06:02.740Z,20.89
2018-09-12T11:07:02.879Z,20.89
2018-09-12T11:08:02.736Z,20.89
2018-09-12T11:09:02.819Z,20.9
2018-09-12T11:10:02.910Z,20.9
2018-09-12T11:11:02.917Z,20.89
2018-09-12T11:12:02.995Z,20.9
2018-09-12T11:13:02.982Z,20.9
2018-09-12T11:14:03.040Z,20.9
2018-09-12T11:15:02.912Z,20.9
2018-09-12T11:16:03.232Z,20.9
2018-09-12T11:17:02.932Z,20.91
2018-09-12T11:18:03.115Z,20.91
2018-09-12T11:19:03.064Z,20.9
2018-09-12T11:20:02.956Z,20.9
2018-09-12T11:21:03.052Z,20.91
2018-09-12T11:22:02.897Z,20.91
2018-09-12T11:23:03.182Z,20.9
2018-09-12T11:24:03.864Z,20.91
2018-09-12T11:25:02.968Z,20.91
2018-09-12T11:26:02.919Z,20.9
2018-09-12T11:27:02.944Z,20.91
2018-09-12T11:28:03.115Z,20.91
2018-09-12T11:29:02.926Z,20.9
2018-09-12T11:30:02.832Z,20.9
2018-09-12T11:31:02.939Z,20.9
2018-09-12T11:32:03.027Z,20.9
2018-09-12T11:33:02.915Z,20.9
2018-09-12T11:34:02.804Z,20.9
2018-09-12T11:35:03.202Z,20.9
2018-09-12T11:36:02.977Z,20.89
2018-09-12T11:37:02.974Z,20.89
2018-09-12T11:38:02.794Z,20.89
2018-09-12T11:39:03.101Z,20.9
2018-09-12T11:40:03.206Z,20.9
2018-09-12T11:41:03.155Z,20.9
2018-09-12T11:42:03.025Z,20.89
2018-09-12T11:43:02.732Z,20.9
2018-09-12T11:44:03.022Z,20.9
2018-09-12T11:45:03.370Z,20.89
2018-09-12T11:46:02.854Z,20.9
2018-09-12T11:47:03.001Z,20.9
2018-09-12T11:48:02.897Z,20.9
2018-09-12T11:49:03.200Z,20.9
2018-09-12T11:50:02.871Z,20.9
2018-09-12T11:51:02.943Z,20.9
2018-09-12T11:52:02.754Z,20.9
2018-09-12T11:53:02.931Z,20.91
2018-09-12T11:54:02.989Z,20.91
2018-09-12T11:55:03.130Z,20.91
2018-09-12T11:56:02.925Z,20.91
2018-09-12T11:57:02.892Z,20.91
2018-09-12T11:58:02.833Z,20.91
2018-09-12T11:59:02.820Z,20.91
2018-09-12T12:00:03.016Z,20.91
2018-09-12T12:01:02.950Z,20.91
2018-09-12T12:02:03.290Z,20.91
2018-09-12T12:03:03.057Z,20.92
2018-09-12T12:04:03.122Z,20.92
2018-09-12T12:05:02.938Z,20.92
2018-09-12T12:06:03.028Z,20.92
2018-09-12T12:07:02.801Z,20.92
2018-09-12T12:08:03.029Z,20.92
2018-09-12T12:09:02.822Z,20.92
2018-09-12T12:10:02.948Z,20.92
2018-09-12T12:11:02.879Z,20.92
2018-09-12T12:12:02.902Z,20.92
2018-09-12T12:13:03.067Z,20.92
2018-09-12T12:14:03.053Z,20.92
2018-09-12T12:15:03.044Z,20.92
2018-09-12T12:16:02.811Z,20.92
2018-09-12T12:17:02.863Z,20.92
2018-09-12T12:18:03.181Z,20.92
2018-09-12T12:19:02.905Z,20.93
2018-09-12T12:20:02.727Z,20.92
2018-09-12T12:21:02.772Z,20.92
2018-09-12T12:22:02.900Z,20.92
2018-09-12T12:23:03.033Z,20.92
2018-09-12T12:24:02.839Z,20.92
2018-09-12T12:25:02.897Z,20.92
2018-09-12T12:26:02.877Z,20.93
2018-09-12T12:27:03.130Z,20.92
2018-09-12T12:28:02.815Z,20.93
2018-09-12T12:29:02.836Z,20.93
2018-09-12T12:30:02.836Z,20.93
2018-09-12T12:31:02.871Z,20.93
2018-09-12T12:32:02.843Z,20.93
2018-09-12T12:33:02.937Z,20.93
2018-09-12T12:34:02.996Z,20.93
2018-09-12T12:35:02.868Z,20.93
2018-09-12T12:36:02.814Z,20.93
2018-09-12T12:37:02.803Z,20.94
2018-09-12T12:38:02.759Z,20.93
2018-09-12T12:39:02.914Z,20.93
2018-09-12T12:40:02.824Z,20.93
2018-09-12T12:41:02.795Z,20.94
2018-09-12T12:42:02.926Z,20.95
2018-09-12T12:43:02.918Z,20.95
2018-09-12T12:44:02.861Z,20.96
2018-09-12T12:45:02.816Z,20.96
2018-09-12T12:46:02.981Z,20.98
2018-09-12T12:47:02.753Z,20.99
2018-09-12T12:48:02.818Z,20.99
2018-09-12T12:49:02.669Z,20.96
2018-09-12T12:50:02.776Z,21
2018-09-12T12:51:02.931Z,21
2018-09-12T12:52:02.664Z,21.01
2018-09-12T12:53:02.768Z,21.03
2018-09-12T12:54:02.974Z,21.05
2018-09-12T12:55:03.518Z,21.07